createdAt,value
2023-02-19T00:01:18.461Z,999.03
2023-02-19T00:06:18.389Z,998.89
2023-02-19T00:11:18.336Z,998.87
2023-02-19T00:16:18.255Z,998.90
2023-02-19T00:21:18.198Z,998.81
2023-02-19T00:26:18.974Z,998.74
2023-02-19T00:31:18.210Z,998.59
2023-02-19T00:36:17.995Z,998.52
2023-02-19T00:41:17.948Z,998.52
2023-02-19T00:46:17.892Z,998.48
2023-02-19T00:51:17.828Z,998.41
2023-02-19T00:56:17.735Z,998.38
2023-02-19T01:01:17.719Z,998.27
2023-02-19T01:06:17.612Z,998.23
2023-02-19T01:11:17.554Z,998.15
2023-02-19T01:16:17.577Z,998.17
2023-02-19T01:21:17.412Z,998.05
2023-02-19T01:26:17.351Z,997.91
2023-02-19T01:31:17.435Z,997.88
2023-02-19T01:36:17.245Z,997.87
2023-02-19T01:41:17.158Z,997.80
2023-02-19T01:46:17.135Z,997.66
2023-02-19T01:51:17.022Z,997.50
2023-02-19T01:56:16.947Z,997.43
2023-02-19T02:01:16.890Z,997.28
2023-02-19T02:06:16.820Z,997.18
2023-02-19T02:11:16.760Z,997.01
2023-02-19T02:16:16.700Z,996.92
2023-02-19T02:21:16.630Z,996.91
2023-02-19T02:26:16.567Z,996.82
2023-02-19T02:31:16.624Z,996.77
2023-02-19T02:36:16.439Z,996.62
2023-02-19T02:41:16.375Z,996.54
2023-02-19T02:46:16.312Z,996.59
2023-02-19T02:51:16.237Z,996.45
2023-02-19T02:56:16.176Z,996.26
2023-02-19T03:01:16.142Z,996.34
2023-02-19T03:06:16.033Z,996.31
2023-02-19T03:11:15.977Z,996.17
2023-02-19T03:16:15.925Z,996.19
2023-02-19T03:21:15.844Z,996.06
2023-02-19T03:26:15.824Z,996.07
2023-02-19T03:31:15.834Z,995.99
2023-02-19T03:36:15.683Z,996.04
2023-02-19T03:41:15.582Z,995.86
2023-02-19T03:46:15.523Z,995.86
2023-02-19T03:51:15.448Z,995.79
2023-02-19T03:56:15.380Z,995.75
2023-02-19T04:01:15.324Z,995.65
2023-02-19T04:06:15.247Z,995.61
2023-02-19T04:11:15.193Z,995.60
2023-02-19T04:16:15.183Z,995.58
2023-02-19T04:21:15.061Z,995.73
2023-02-19T04:26:15.038Z,995.79
2023-02-19T04:31:15.108Z,996.10
2023-02-19T04:36:14.863Z,996.05
2023-02-19T04:41:14.793Z,996.17
2023-02-19T04:46:14.755Z,996.36
2023-02-19T04:51:14.653Z,996.31
2023-02-19T04:56:14.597Z,996.43
2023-02-19T05:01:14.861Z,996.46
2023-02-19T05:06:14.471Z,996.55
2023-02-19T05:11:14.405Z,996.53
2023-02-19T05:16:14.338Z,996.59
2023-02-19T05:21:14.260Z,996.54
2023-02-19T05:26:14.208Z,996.47
2023-02-19T05:31:14.695Z,996.50
2023-02-19T05:36:14.083Z,996.55
2023-02-19T05:41:14.002Z,996.58
2023-02-19T05:46:14.001Z,996.60
2023-02-19T05:51:13.873Z,996.69
2023-02-19T05:56:13.813Z,996.68
2023-02-19T06:01:13.740Z,996.81
2023-02-19T06:06:13.682Z,996.87
2023-02-19T06:11:13.611Z,996.89
2023-02-19T06:16:13.659Z,996.99
2023-02-19T06:21:13.599Z,997.10
2023-02-19T06:26:13.432Z,997.16
2023-02-19T06:31:13.784Z,997.19
2023-02-19T06:36:13.303Z,997.28
2023-02-19T06:41:13.595Z,997.31
2023-02-19T06:46:13.291Z,997.39
2023-02-19T06:51:13.222Z,997.43
2023-02-19T06:56:13.040Z,997.57
2023-02-19T07:01:13.296Z,997.61
2023-02-19T07:06:12.905Z,997.67
2023-02-19T07:11:12.959Z,997.82
2023-02-19T07:16:12.833Z,998.08
2023-02-19T07:21:13.069Z,998.12
2023-02-19T07:26:12.642Z,998.43
2023-02-19T07:31:13.109Z,998.58
2023-02-19T07:36:12.515Z,998.85
2023-02-19T07:41:12.740Z,998.93
2023-02-19T07:46:12.418Z,999.23
2023-02-19T07:51:12.661Z,999.46
2023-02-19T07:56:12.257Z,999.65
2023-02-19T08:01:12.479Z,999.82
2023-02-19T08:06:12.125Z,999.87
2023-02-19T08:11:12.394Z,999.99
2023-02-19T08:16:19.999Z,1000.17
2023-02-19T08:21:12.286Z,1000.30
2023-02-19T08:26:11.860Z,1000.53
2023-02-19T08:31:12.314Z,1000.48
2023-02-19T08:36:11.727Z,1000.68
2023-02-19T08:41:12.198Z,1000.94
2023-02-19T08:46:11.638Z,1001.03
2023-02-19T08:51:12.013Z,1001.20
2023-02-19T08:56:11.466Z,1001.38
2023-02-19T09:01:11.866Z,1001.69
2023-02-19T09:06:11.717Z,1001.78
2023-02-19T09:11:11.624Z,1001.91
2023-02-19T09:16:11.194Z,1002.03
2023-02-19T09:21:11.438Z,1001.96
2023-02-19T09:26:11.108Z,1002.03
2023-02-19T09:31:11.477Z,1002.14
2023-02-19T09:36:10.937Z,1002.24
2023-02-19T09:41:11.230Z,1002.30
2023-02-19T09:46:10.830Z,1002.41
2023-02-19T09:51:11.036Z,1002.57
2023-02-19T09:56:10.674Z,1002.64
2023-02-19T10:01:11.089Z,1002.67
2023-02-19T10:06:11.516Z,1002.65
2023-02-19T10:11:10.780Z,1002.78
2023-02-19T10:16:10.475Z,1002.88
2023-02-19T10:21:10.777Z,1002.98
2023-02-19T10:26:10.280Z,1003.12
2023-02-19T10:31:10.778Z,1003.14
2023-02-19T10:36:10.149Z,1003.35
2023-02-19T10:41:10.361Z,1003.33
2023-02-19T10:46:10.029Z,1003.44
2023-02-19T10:51:10.346Z,1003.43
2023-02-19T10:56:09.883Z,1003.61
2023-02-19T11:01:10.104Z,1003.77
2023-02-19T11:06:09.750Z,1003.84
2023-02-19T11:11:10.028Z,1003.91
2023-02-19T11:16:09.650Z,1003.98
2023-02-19T11:21:09.885Z,1004.02
2023-02-19T11:26:09.487Z,1004.06
2023-02-19T11:31:10.509Z,1004.14
2023-02-19T11:36:09.357Z,1004.18
2023-02-19T11:41:09.739Z,1004.34
2023-02-19T11:46:09.235Z,1004.34
2023-02-19T11:51:09.593Z,1004.35
2023-02-19T11:56:09.102Z,1004.37
2023-02-19T12:01:09.641Z,1004.25
2023-02-19T12:06:09.218Z,1004.35
2023-02-19T12:11:08.920Z,1004.38
2023-02-19T12:16:08.859Z,1004.34
2023-02-19T12:21:09.187Z,1004.42
2023-02-19T12:26:09.108Z,1004.40
2023-02-19T12:31:08.688Z,1004.40
2023-02-19T12:36:08.861Z,1004.44
2023-02-19T12:41:08.513Z,1004.38
2023-02-19T12:46:08.534Z,1004.48
2023-02-19T12:51:08.383Z,1004.50
2023-02-19T12:56:08.327Z,1004.55
2023-02-19T13:01:08.288Z,1004.65
2023-02-19T13:06:10.059Z,1004.72
2023-02-19T13:11:08.179Z,1004.73
2023-02-19T13:16:08.058Z,1004.72
2023-02-19T13:21:08.001Z,1004.76
2023-02-19T13:26:07.929Z,1004.72
2023-02-19T13:31:08.020Z,1004.73
2023-02-19T13:36:07.887Z,1004.89
2023-02-19T13:41:07.740Z,1004.89
2023-02-19T13:46:07.711Z,1004.94
2023-02-19T13:51:07.608Z,1004.99
2023-02-19T13:56:07.535Z,1005.04
2023-02-19T14:01:07.516Z,1005.08
2023-02-19T14:06:07.422Z,1005.21
2023-02-19T14:11:07.346Z,1005.30
2023-02-19T14:16:07.352Z,1005.29
2023-02-19T14:21:07.217Z,1005.28
2023-02-19T14:26:07.141Z,1005.25
2023-02-19T14:31:07.115Z,1005.18
2023-02-19T14:36:07.023Z,1005.14
2023-02-19T14:41:06.962Z,1005.09
2023-02-19T14:46:06.896Z,1005.19
2023-02-19T14:51:06.822Z,1005.13
2023-02-19T14:56:06.752Z,1005.26
2023-02-19T15:01:06.691Z,1005.28
2023-02-19T15:06:06.626Z,1005.17
2023-02-19T15:11:06.560Z,1005.20
2023-02-19T15:16:06.540Z,1005.29
2023-02-19T15:21:06.435Z,1005.37
2023-02-19T15:26:06.359Z,1005.40
2023-02-19T15:31:06.443Z,1005.44
2023-02-19T15:36:06.230Z,1005.37
2023-02-19T15:41:06.174Z,1005.47
2023-02-19T15:46:06.376Z,1005.49
2023-02-19T15:51:06.043Z,1005.54
2023-02-19T15:56:05.972Z,1005.52
2023-02-19T16:01:05.917Z,1005.64
2023-02-19T16:06:05.838Z,1005.60
2023-02-19T16:11:05.779Z,1005.63
2023-02-19T16:16:06.095Z,1005.57
2023-02-19T16:21:05.650Z,1005.71
2023-02-19T16:26:05.577Z,1005.79
2023-02-19T16:31:05.573Z,1005.81
2023-02-19T16:36:05.446Z,1005.90
2023-02-19T16:41:05.389Z,1005.98
2023-02-19T16:46:05.336Z,1006.10
2023-02-19T16:51:05.259Z,1006.20
2023-02-19T16:56:05.182Z,1006.37
2023-02-19T17:01:05.174Z,1006.41
2023-02-19T17:06:05.049Z,1006.38
2023-02-19T17:11:04.987Z,1006.47
2023-02-19T17:16:04.942Z,1006.46
2023-02-19T17:21:04.855Z,1006.50
2023-02-19T17:26:04.782Z,1006.63
2023-02-19T17:31:04.720Z,1006.80
2023-02-19T17:36:04.651Z,1006.71
2023-02-19T17:41:04.589Z,1006.67
2023-02-19T17:46:04.552Z,1006.65
2023-02-19T17:51:04.449Z,1006.79
2023-02-19T17:56:04.390Z,1006.91
2023-02-19T18:01:04.326Z,1006.98
2023-02-19T18:06:04.254Z,1007.02
2023-02-19T18:11:04.194Z,1007.00
2023-02-19T18:16:04.275Z,1006.87
2023-02-19T18:21:04.166Z,1006.82
2023-02-19T18:26:04.193Z,1006.94
2023-02-19T18:31:04.366Z,1006.94
2023-02-19T18:36:04.163Z,1006.88
2023-02-19T18:41:04.205Z,1006.90
2023-02-19T18:46:04.294Z,1007.10
2023-02-19T18:51:04.223Z,1007.07
2023-02-19T18:56:03.606Z,1007.04
2023-02-19T19:01:03.656Z,1007.13
2023-02-19T19:06:03.472Z,1007.08
2023-02-19T19:11:03.423Z,1007.10
2023-02-19T19:16:03.405Z,1007.04
2023-02-19T19:21:03.286Z,1007.01
2023-02-19T19:26:03.210Z,1007.10
2023-02-19T19:31:03.186Z,1007.13
2023-02-19T19:36:03.079Z,1007.03
2023-02-19T19:41:03.018Z,1007.16
2023-02-19T19:46:02.952Z,1007.22
2023-02-19T19:51:02.885Z,1007.20
2023-02-19T19:56:02.812Z,1007.19
2023-02-19T20:01:02.752Z,1007.17
2023-02-19T20:06:02.679Z,1007.01
2023-02-19T20:11:02.621Z,1007.07
2023-02-19T20:16:02.621Z,1007.04
2023-02-19T20:21:02.492Z,1007.07
2023-02-19T20:26:02.454Z,1007.03
2023-02-19T20:31:02.403Z,1007.06
2023-02-19T20:36:02.278Z,1007.07
2023-02-19T20:41:02.218Z,1006.99
2023-02-19T20:46:02.146Z,1007.02
2023-02-19T20:51:02.112Z,1007.11
2023-02-19T20:56:02.012Z,1007.02
2023-02-19T21:01:01.963Z,1007.01
2023-02-19T21:06:01.890Z,1007.18
2023-02-19T21:11:01.829Z,1007.18
2023-02-19T21:16:01.767Z,1007.09
2023-02-19T21:21:01.702Z,1007.12
2023-02-19T21:26:01.635Z,1007.19
2023-02-19T21:31:01.651Z,1007.29
2023-02-19T21:36:01.498Z,1007.31
2023-02-19T21:41:01.515Z,1007.31
2023-02-19T21:46:01.448Z,1007.31
2023-02-19T21:51:01.312Z,1007.25
2023-02-19T21:56:01.235Z,1007.14
2023-02-19T22:01:01.259Z,1007.11
2023-02-19T22:06:01.102Z,1006.99
2023-02-19T22:11:01.047Z,1007.02
2023-02-19T22:16:01.017Z,1006.96
2023-02-19T22:21:00.911Z,1007.02
2023-02-19T22:26:00.838Z,1007.03
2023-02-19T22:31:00.782Z,1006.89
2023-02-19T22:36:00.708Z,1006.83
2023-02-19T22:41:00.650Z,1006.87
2023-02-19T22:46:00.614Z,1006.86
2023-02-19T22:51:00.517Z,1006.87
2023-02-19T22:56:00.444Z,1006.95
2023-02-19T23:01:00.434Z,1006.88
2023-02-19T23:06:00.317Z,1006.94
2023-02-19T23:11:00.261Z,1006.88
2023-02-19T23:16:00.187Z,1006.85
2023-02-19T23:21:00.130Z,1006.85
2023-02-19T23:26:00.056Z,1006.80
2023-02-19T23:31:00.185Z,1006.84
2023-02-19T23:35:59.935Z,1006.80
2023-02-19T23:40:59.865Z,1006.75
2023-02-19T23:45:59.821Z,1006.79
2023-02-19T23:50:59.729Z,1006.72
2023-02-19T23:55:59.656Z,1006.59
